Lake Village, AR (71653)

3:13 AM CDT on August 01, 2014 (GMT -0500)
Mid Delta Regional (KGLH) Elev 131 ft | 33.48 °N, 90.99 °W | Change Station

Current weather conditions updated 20 minutes ago

Overcast
Overcast
71 °F
Feels Like 71 °F
N
0
Wind Variable Wind from North

Today is forecast to be Cooler than yesterday. Rain with a few rumbles of thunder.

Today
High -- | Low -- °F
--% Chance of Precip.
Yesterday
High -- | Low -- °F
Precip. -- in
6:17 AM 8:04 PM
Waxing Crescent, 24% visible
Pressure 30.03 in
Visibility 5.0 miles
Clouds Overcast 7500 ft
Dew Point 68 °F
Humidity 90%
Rainfall 0.00 in
Snow Depth Not available.
UV 0 out of 12
Pollen 3.20 out of 12
Air Quality Not available.
Flu Activity Not available.
METAR KGLH 010753Z AUTO 00000KT 5SM BR OVC075 22/20 A3001 RMK AO2 SLP168 T02170200

More Conditions Fewer Conditions

Pressure 30.03 in
Visibility 5.0 miles
Clouds Overcast 7500 ft
Dew Point 68 °F
Humidity 90%
Rainfall 0.00 in
Snow Depth Not available.
UV 0 out of 12
Pollen 3.20 out of 12
Air Quality Not available.
Flu Activity Not available.
METAR KGLH 010753Z AUTO 00000KT 5SM BR OVC075 22/20 A3001 RMK AO2 SLP168 T02170200

More Conditions Fewer Conditions

10-Day Weather Forecast

Almanac

Astronomy

Aug. 01, 2014 Rise Set
Actual Time 6:17 AM CDT 8:04 PM CDT
Civil Twilight 5:50 AM CDT 8:31 PM CDT
Nautical Twilight 5:18 AM CDT 9:04 PM CDT
Astronomical Twilight 4:43 AM CDT 9:38 PM CDT
Moon 11:23 AM CDT 11:09 PM CDT
Length of Visible Light 14h 40m
Length of Day
13h 46m
Tomorrow will be 1m 32s shorter.
Waxing Crescent, 24% of the Moon is Illuminated
Today
Waxing Crescent
Aug 3
First Quarter
Aug 10
Full
Aug 17
Last Quarter
Aug 25
New

Today's Extremes

State Highs State Lows

Community

WunderPhotos

Upload Photos

1,739,522 photos uploaded!

Nearby

Snow Depth

Station Depth Elevation
No new snow has been reported.

Earthquake Activity

City Distance Mag. Time & Date
No recent earthquake activity has been reported nearby.
Minimum magnitude displayed is 2.5.

Coastal Water Temperatures

Place Temperature
No Stations Reporting

Nearby Weather Stations

Station Location Temp. Dew Point Humidity Wind Precip. Elev Updated Type
MesoWest DERMOT , Dermott, AR 70 °F - - North  at  - 0.00 in / hr 143 ft 2:10 AM CDT MADIS
MesoWest SUNSHN , Portland, AR 69 °F - - North  at  - 0.00 in / hr 125 ft 1:00 AM CDT MADIS
MesoWest SCOTT , Scott, MS 70 °F 69 °F 94% NE  at  3 mph 0.00 in / hr 165 ft 12:00 AM CDT MADIS

Show More Stations Show Fewer Stations